Piney Point, Maryland
Current Conditions -  °F | °C
As of 5:53 PM on Wednesday 26 Nov 2014 (Local Time) from KNUI Reporting Station
Light Rain Light Rain  
Wind Chill: 31°   Ceiling: 1000
Heat Index: 38°   Visibility: 10mi
Dew Point: 34°   Wind: 10mph
Humidity: 86%   Direction: 320°NW
Pressure: 29.91"   Gusts: 21mph
Location:  38.14°N, 76.51°W
Report Text: KNUI 262253Z AUTO 32009G18KT 10SM -RA OVC010 03/01 A2991 RMK AO2 SLP126 P0002 T00330011
Loading
Personal Weather Stations






























Interactive Weather Map New forecast layout! Learn more

10-Day Weather Forecast

Advertisements
Track Severe Weather on mobile